Time;durP1;ratioP1;P1;durP2;ratioP2;P2;SDS_P1;SDS_P2;PMS_P1;PMS_P2;Temp;Humidity;BMP_temperature;BMP_pressure;BME280_temperature;BME280_humidity;BME280_pressure;Samples;Min_cycle;Max_cycle;Signal;HPM_P1;HPM_P2
2023/03/20 00:00:15;;;;;;;;;29.75;27.50;;;;;7.63;100.00;101694.88;5070165;27;45481;-80
2023/03/20 00:02:41;;;;;;;;;37.75;33.25;;;;;7.62;100.00;101702.25;5066682;28;45622;-81
2023/03/20 00:05:27;;;;;;;;;33.75;30.25;;;;;7.62;100.00;101698.63;5065997;28;45605;-81
2023/03/20 00:07:54;;;;;;;;;36.00;33.00;;;;;7.60;100.00;101693.34;5059447;28;45881;-83
2023/03/20 00:10:21;;;;;;;;;29.75;29.25;;;;;7.58;100.00;101690.78;5064477;27;46993;-81
2023/03/20 00:12:49;;;;;;;;;34.25;31.75;;;;;7.60;100.00;101701.53;5053974;28;45586;-82
2023/03/20 00:15:25;;;;;;;;;36.75;34.00;;;;;7.46;100.00;101696.72;5068408;28;45810;-81
2023/03/20 00:17:52;;;;;;;;;35.25;32.50;;;;;7.52;100.00;101709.69;5060784;28;45657;-81
2023/03/20 00:20:17;;;;;;;;;38.75;32.75;;;;;7.50;100.00;101714.44;5066622;28;48313;-82
2023/03/20 00:22:43;;;;;;;;;36.25;32.50;;;;;7.49;100.00;101719.06;5065594;27;45834;-81
2023/03/20 00:25:14;;;;;;;;;28.00;28.00;;;;;7.44;100.00;101716.00;5061070;27;45849;-82
2023/03/20 00:27:40;;;;;;;;;32.75;30.00;;;;;7.43;100.00;101719.72;5080808;27;45754;-82
2023/03/20 00:30:28;;;;;;;;;27.25;25.00;;;;;7.42;100.00;101718.00;5059063;28;48244;-81
2023/03/20 00:32:56;;;;;;;;;31.75;27.50;;;;;7.40;100.00;101706.41;5052961;27;45720;-82
2023/03/20 00:35:29;;;;;;;;;24.25;20.25;;;;;7.38;100.00;101708.44;5063016;28;45636;-82
2023/03/20 00:37:56;;;;;;;;;30.25;25.50;;;;;7.34;100.00;101709.81;5061078;27;45796;-81
2023/03/20 00:40:27;;;;;;;;;27.75;25.50;;;;;7.33;100.00;101721.72;5051112;28;46012;-82
2023/03/20 00:42:59;;;;;;;;;21.75;20.50;;;;;7.27;100.00;101700.56;5048094;28;45555;-81
2023/03/20 00:45:26;;;;;;;;;25.50;22.75;;;;;7.33;100.00;101714.38;5050648;28;45719;-81
2023/03/20 00:47:52;;;;;;;;;29.50;27.25;;;;;7.31;100.00;101700.06;5051838;28;45784;-80
2023/03/20 00:50:24;;;;;;;;;36.50;27.75;;;;;7.20;100.00;101682.13;5050662;28;45900;-81
2023/03/20 00:52:50;;;;;;;;;30.00;25.25;;;;;7.23;100.00;101698.16;5050715;28;45655;-81
2023/03/20 00:55:19;;;;;;;;;28.00;25.75;;;;;7.21;100.00;101702.91;5047959;28;45347;-81
2023/03/20 00:57:53;;;;;;;;;29.25;24.00;;;;;7.23;100.00;101710.91;5051848;28;45540;-80
2023/03/20 01:00:30;;;;;;;;;28.50;22.25;;;;;7.17;100.00;101693.34;5045103;28;47510;-83
2023/03/20 01:02:56;;;;;;;;;29.25;24.50;;;;;7.21;100.00;101700.19;5035225;28;45684;-81
2023/03/20 01:05:23;;;;;;;;;24.50;21.00;;;;;7.13;100.00;101696.56;5066551;27;45620;-80
2023/03/20 01:07:48;;;;;;;;;28.75;22.75;;;;;7.18;100.00;101707.84;5051012;28;45904;-81
2023/03/20 01:10:14;;;;;;;;;27.75;23.00;;;;;7.11;100.00;101694.00;5037849;28;48412;-81
2023/03/20 01:12:41;;;;;;;;;26.33;21.00;;;;;7.06;100.00;101696.34;5047046;28;45386;-80
2023/03/20 01:15:20;;;;;;;;;22.00;20.25;;;;;7.07;100.00;101698.06;5066265;27;45646;-81
2023/03/20 01:17:45;;;;;;;;;31.75;22.25;;;;;7.09;100.00;101711.56;5051786;28;45807;-80
2023/03/20 01:20:16;;;;;;;;;22.33;21.00;;;;;7.08;100.00;101718.88;5052409;28;45514;-79
2023/03/20 01:22:42;;;;;;;;;25.00;20.75;;;;;7.10;100.00;101714.13;5049144;28;45560;-80
2023/03/20 01:25:09;;;;;;;;;27.67;23.67;;;;;7.08;100.00;101716.16;5052375;28;45928;-79
2023/03/20 01:27:34;;;;;;;;;25.75;22.25;;;;;7.07;100.00;101720.75;5051149;28;45494;-80
2023/03/20 01:29:59;;;;;;;;;31.75;24.25;;;;;7.05;100.00;101716.44;5056685;28;45966;-80
2023/03/20 01:32:25;;;;;;;;;28.00;24.75;;;;;7.06;100.00;101718.19;5054303;28;45986;-81
2023/03/20 01:34:51;;;;;;;;;25.25;22.25;;;;;7.06;100.00;101723.63;5051802;28;45453;-78
2023/03/20 01:37:23;;;;;;;;;22.67;20.67;;;;;7.04;100.00;101721.06;5061978;27;46529;-79
2023/03/20 01:39:49;;;;;;;;;24.33;21.67;;;;;7.03;100.00;101707.59;5049853;28;46966;-81
2023/03/20 01:42:15;;;;;;;;;22.00;21.33;;;;;7.00;100.00;101705.19;5050012;28;45743;-79
2023/03/20 01:44:41;;;;;;;;;26.00;24.75;;;;;7.00;100.00;101713.38;5044179;28;45426;-80
2023/03/20 01:47:15;;;;;;;;;20.00;19.00;;;;;7.00;100.00;101700.56;5048454;28;45384;-78
2023/03/20 01:50:18;;;;;;;;;19.33;18.67;;;;;7.00;100.00;101707.91;5040470;28;45854;-79
2023/03/20 01:52:45;;;;;;;;;17.00;17.00;;;;;6.96;100.00;101695.63;5048777;28;45550;-79
2023/03/20 01:55:11;;;;;;;;;22.33;19.33;;;;;6.94;100.00;101697.66;5047978;28;45545;-80
2023/03/20 01:57:37;;;;;;;;;20.67;16.67;;;;;6.92;100.00;101705.16;5048005;28;45742;-79
2023/03/20 02:00:10;;;;;;;;;22.33;18.33;;;;;6.95;100.00;101699.38;5048860;28;47021;-79
2023/03/20 02:02:38;;;;;;;;;18.67;16.00;;;;;6.94;100.00;101703.13;5049440;28;45493;-80
2023/03/20 02:05:09;;;;;;;;;23.33;16.33;;;;;6.89;100.00;101704.44;5048001;28;45375;-79
2023/03/20 02:07:37;;;;;;;;;23.00;16.33;;;;;6.91;100.00;101697.97;5048047;28;45931;-80
2023/03/20 02:10:07;;;;;;;;;19.00;15.67;;;;;6.88;100.00;101688.25;5050784;28;46093;-79
2023/03/20 02:12:34;;;;;;;;;22.00;19.00;;;;;6.88;100.00;101694.53;5044990;28;45461;-80
2023/03/20 02:15:00;;;;;;;;;19.00;15.33;;;;;6.90;100.00;101691.66;5044914;28;45468;-80
2023/03/20 02:17:25;;;;;;;;;22.67;16.00;;;;;6.84;100.00;101676.81;5061299;27;45886;-81
2023/03/20 02:20:10;;;;;;;;;20.67;14.67;;;;;6.88;100.00;101675.44;5048953;28;45719;-79
2023/03/20 02:23:21;;;;;;;;;16.67;16.67;;;;;6.87;100.00;101686.53;5048493;28;45831;-79
2023/03/20 02:26:23;;;;;;;;;14.67;14.00;;;;;6.85;100.00;101686.69;5047650;28;46549;-79
2023/03/20 02:29:21;;;;;;;;;17.00;14.33;;;;;6.83;100.00;101691.47;5049445;28;45398;-80
2023/03/20 02:32:05;;;;;;;;;19.00;15.33;;;;;6.83;100.00;101694.19;5051203;28;45845;-81
2023/03/20 02:35:08;;;;;;;;;18.67;18.67;;;;;6.80;100.00;101686.31;5042721;28;46059;-81
2023/03/20 02:38:10;;;;;;;;;20.00;17.00;;;;;6.80;100.00;101680.88;5061577;27;45439;-79
2023/03/20 02:40:51;;;;;;;;;18.67;15.67;;;;;6.79;100.00;101684.59;5069679;27;45542;-79
2023/03/20 02:43:37;;;;;;;;;19.67;17.33;;;;;6.78;100.00;101672.00;5079403;27;47123;-82
2023/03/20 02:46:32;;;;;;;;;25.67;20.67;;;;;6.78;100.00;101690.22;5065500;27;45586;-79
2023/03/20 02:49:16;;;;;;;;;22.33;15.33;;;;;6.76;100.00;101684.94;5034431;27;45592;-78
2023/03/20 02:52:02;;;;;;;;;20.33;17.33;;;;;6.75;100.00;101677.78;5070693;27;45977;-79
2023/03/20 02:54:40;;;;;;;;;20.00;17.67;;;;;6.73;100.00;101679.81;5072334;27;46132;-79
2023/03/20 02:57:19;;;;;;;;;23.00;17.33;;;;;6.70;100.00;101674.69;5066425;27;45915;-80
2023/03/20 03:00:01;;;;;;;;;17.00;16.33;;;;;6.68;100.00;101665.81;5076513;27;45380;-80
2023/03/20 03:02:37;;;;;;;;;25.50;20.25;;;;;6.66;100.00;101679.59;5073071;27;45668;-81
2023/03/20 03:05:13;;;;;;;;;22.00;20.33;;;;;6.65;100.00;101669.69;5068491;27;47005;-80
2023/03/20 03:07:43;;;;;;;;;18.67;18.67;;;;;6.66;100.00;101674.16;5077796;27;45336;-80
2023/03/20 03:10:21;;;;;;;;;25.00;22.00;;;;;6.65;100.00;101666.97;5087533;27;45761;-80
2023/03/20 03:12:50;;;;;;;;;31.67;22.67;;;;;6.50;100.00;101641.34;5085577;27;45535;-80
2023/03/20 03:15:20;;;;;;;;;25.00;21.50;;;;;6.66;100.00;101678.72;5078257;27;45644;-80
2023/03/20 03:17:48;;;;;;;;;23.25;20.25;;;;;6.68;100.00;101677.56;5095421;27;46592;-80
2023/03/20 03:20:24;;;;;;;;;24.25;19.25;;;;;6.62;100.00;101666.47;5081787;27;45681;-80
2023/03/20 03:22:50;;;;;;;;;20.00;18.67;;;;;6.72;100.00;101672.63;5078131;27;45790;-80
2023/03/20 03:25:15;;;;;;;;;22.67;19.33;;;;;6.74;100.00;101676.06;5078425;27;45612;-79
2023/03/20 03:27:45;;;;;;;;;22.33;18.33;;;;;6.73;100.00;101663.44;5074501;27;45840;-80
2023/03/20 03:30:33;;;;;;;;;24.67;21.00;;;;;6.78;100.00;101674.75;5069430;27;45769;-80
2023/03/20 03:33:15;;;;;;;;;29.00;25.25;;;;;6.80;100.00;101667.25;5081418;27;46440;-81
2023/03/20 03:35:42;;;;;;;;;20.33;20.33;;;;;6.84;100.00;101674.09;5067834;27;45815;-80
2023/03/20 03:38:29;;;;;;;;;22.33;17.33;;;;;6.87;100.00;101664.72;5071700;27;45684;-80
2023/03/20 03:41:04;;;;;;;;;20.33;16.00;;;;;6.84;100.00;101660.47;5069231;27;45747;-80
2023/03/20 03:43:38;;;;;;;;;14.67;14.67;;;;;6.82;100.00;101667.06;5070073;27;46145;-80
2023/03/20 03:46:18;;;;;;;;;24.50;20.75;;;;;6.82;100.00;101664.34;5070571;27;45795;-81
2023/03/20 03:48:51;;;;;;;;;21.50;18.00;;;;;6.78;100.00;101655.66;5069365;27;45466;-81
2023/03/20 03:51:22;;;;;;;;;25.75;23.00;;;;;6.65;100.00;101636.16;5069338;27;45544;-80
2023/03/20 03:53:54;;;;;;;;;25.75;21.25;;;;;6.76;100.00;101656.81;5070547;27;45873;-79
2023/03/20 03:56:24;;;;;;;;;32.00;25.50;;;;;6.74;100.00;101654.25;5068161;27;45921;-79
2023/03/20 03:59:03;;;;;;;;;25.25;21.50;;;;;6.72;100.00;101654.44;5071209;27;45794;-81
2023/03/20 04:01:34;;;;;;;;;27.00;23.50;;;;;6.71;100.00;101654.59;5070148;27;45433;-80
2023/03/20 04:04:02;;;;;;;;;27.50;21.25;;;;;6.69;100.00;101645.69;5073472;27;45785;-81
2023/03/20 04:06:28;;;;;;;;;30.00;24.50;;;;;6.70;100.00;101655.59;5076277;27;48565;-80
2023/03/20 04:08:54;;;;;;;;;24.25;21.75;;;;;6.66;100.00;101657.78;5092796;27;45536;-82
2023/03/20 04:11:24;;;;;;;;;27.00;22.25;;;;;6.71;100.00;101660.88;5069074;27;45497;-80
2023/03/20 04:14:18;;;;;;;;;24.50;23.25;;;;;6.78;100.00;101665.69;5060406;27;47179;-86
2023/03/20 04:16:45;;;;;;;;;26.75;21.00;;;;;6.88;100.00;101674.59;5076727;27;45625;-85
2023/03/20 04:19:10;;;;;;;;;25.25;21.75;;;;;6.87;100.00;101670.16;5076256;27;45789;-84
2023/03/20 04:21:36;;;;;;;;;24.25;22.00;;;;;6.98;100.00;101672.63;5080607;27;45747;-86
2023/03/20 04:24:02;;;;;;;;;21.00;19.00;;;;;6.92;100.00;101653.34;5075853;27;47523;-86
2023/03/20 04:26:27;;;;;;;;;22.75;20.50;;;;;7.14;100.00;101682.78;5095691;27;45887;-85
2023/03/20 04:28:53;;;;;;;;;24.00;21.50;;;;;7.20;100.00;101682.13;5078911;27;45434;-86
2023/03/20 04:31:19;;;;;;;;;22.33;18.33;;;;;7.29;100.00;101683.00;5072440;27;45748;-86
2023/03/20 04:33:45;;;;;;;;;24.50;21.75;;;;;7.35;100.00;101695.13;5080700;27;45475;-86
2023/03/20 04:36:11;;;;;;;;;23.33;21.00;;;;;7.17;100.00;101655.16;5092821;27;47113;-88
2023/03/20 04:38:37;;;;;;;;;25.50;24.50;;;;;7.48;100.00;101692.78;5074141;27;45708;-85
2023/03/20 04:41:10;;;;;;;;;21.67;19.33;;;;;7.23;100.00;101638.13;5085328;27;45320;-88
2023/03/20 04:43:36;;;;;;;;;26.67;23.00;;;;;7.58;100.00;101685.31;5100248;27;45745;-87
2023/03/20 04:46:02;;;;;;;;;26.33;22.00;;;;;7.33;100.00;101632.53;5093879;27;46968;-87
2023/03/20 04:48:28;;;;;;;;;22.33;19.33;;;;;7.58;100.00;101671.66;5099557;27;45432;-87
2023/03/20 04:50:53;;;;;;;;;17.00;17.00;;;;;7.68;100.00;101679.72;5078611;27;45811;-84
2023/03/20 04:53:19;;;;;;;;;22.67;20.00;;;;;7.34;100.00;101611.56;5076470;28;46063;-86
2023/03/20 04:55:47;;;;;;;;;17.67;17.67;;;;;7.80;100.00;101666.63;5080832;28;47982;-87
2023/03/20 04:58:12;;;;;;;;;20.33;20.00;;;;;7.77;100.00;101664.22;5085124;28;45765;-86
2023/03/20 05:00:38;;;;;;;;;22.00;18.33;;;;;7.89;100.00;101682.00;5095652;27;45497;-84
2023/03/20 05:03:03;;;;;;;;;24.33;19.67;;;;;7.86;100.00;101659.59;5075468;27;45880;-85
2023/03/20 05:05:29;;;;;;;;;24.67;21.00;;;;;7.82;100.00;101642.72;5073867;27;45436;-85
2023/03/20 05:07:55;;;;;;;;;19.00;19.00;;;;;7.90;100.00;101653.66;5098006;27;45526;-87
2023/03/20 05:10:21;;;;;;;;;26.33;19.67;;;;;7.94;100.00;101657.75;5114417;27;45452;-85
2023/03/20 05:12:47;;;;;;;;;22.00;19.00;;;;;8.07;100.00;101670.06;5071886;27;45370;-84
2023/03/20 05:15:49;;;;;;;;;20.67;19.67;;;;;7.86;100.00;101624.97;5072500;27;47177;-88
2023/03/20 05:18:42;;;;;;;;;30.00;28.00;;;;;8.17;100.00;101678.94;5097380;27;45086;-87
2023/03/20 05:21:08;;;;;;;;;24.33;17.67;;;;;7.78;100.00;101597.63;5093457;27;45221;-84
2023/03/20 05:23:34;;;;;;;;;22.33;18.33;;;;;7.84;100.00;101599.69;5093229;27;44799;-86
2023/03/20 05:26:00;;;;;;;;;15.67;14.33;;;;;8.06;100.00;101630.94;5071496;27;47190;-87
2023/03/20 05:28:26;;;;;;;;;15.00;12.00;;;;;8.29;100.00;101660.31;5088910;27;45792;-86
2023/03/20 05:30:56;;;;;;;;;20.00;17.33;;;;;8.09;100.00;101621.56;5073607;28;45924;-88
2023/03/20 05:33:22;;;;;;;;;20.00;17.67;;;;;8.40;100.00;101656.41;5075809;27;45661;-85
2023/03/20 05:35:48;;;;;;;;;19.00;17.00;;;;;8.09;100.00;101602.44;5075757;28;47523;-84
2023/03/20 05:38:13;;;;;;;;;18.67;17.67;;;;;7.98;100.00;101583.66;5071369;28;45710;-85
2023/03/20 05:40:40;;;;;;;;;22.67;18.00;;;;;8.37;100.00;101637.59;5070294;27;45859;-85
2023/03/20 05:43:06;;;;;;;;;21.67;18.67;;;;;8.46;100.00;101650.28;5073330;27;47437;-84
2023/03/20 05:45:31;;;;;;;;;17.67;12.00;;;;;8.53;100.00;101654.00;5073021;27;48505;-84
2023/03/20 05:47:57;;;;;;;;;25.33;22.00;;;;;8.59;100.00;101653.34;5080513;27;45516;-82
2023/03/20 05:50:22;;;;;;;;;32.67;28.33;;;;;8.65;100.00;101662.69;5078047;27;45429;-82
2023/03/20 05:52:49;;;;;;;;;24.33;24.33;;;;;8.68;100.00;101662.34;5076864;27;45641;-81
2023/03/20 05:55:14;;;;;;;;;17.33;16.67;;;;;8.75;100.00;101665.25;5081884;27;47952;-84
2023/03/20 05:57:40;;;;;;;;;17.67;17.00;;;;;8.81;100.00;101662.66;5067353;28;46228;-83
2023/03/20 06:00:07;;;;;;;;;14.33;13.67;;;;;8.92;100.00;101669.66;5070271;28;45320;-84
2023/03/20 06:02:33;;;;;;;;;19.00;18.00;;;;;9.00;100.00;101677.84;5075061;28;45429;-84
2023/03/20 06:04:58;;;;;;;;;17.33;17.33;;;;;9.10;100.00;101674.03;5089156;28;47496;-84
2023/03/20 06:07:24;;;;;;;;;17.67;17.00;;;;;9.23;100.00;101685.28;5090703;27;45448;-84
2023/03/20 06:09:49;;;;;;;;;21.00;19.00;;;;;9.29;100.00;101684.56;5105162;27;45399;-85
2023/03/20 06:12:21;;;;;;;;;20.00;16.67;;;;;9.33;100.00;101682.34;5089097;28;45381;-83
2023/03/20 06:14:46;;;;;;;;;25.33;20.33;;;;;9.37;100.00;101689.16;5089674;27;46222;-83
2023/03/20 06:17:12;;;;;;;;;29.33;20.33;;;;;9.38;100.00;101681.81;5089360;28;45412;-83
2023/03/20 06:19:38;;;;;;;;;21.00;15.00;;;;;9.42;100.00;101689.50;5105065;27;44801;-83
2023/03/20 06:22:03;;;;;;;;;20.00;16.33;;;;;9.48;100.00;101691.50;5098085;27;45318;-81
2023/03/20 06:24:29;;;;;;;;;22.00;15.00;;;;;9.52;100.00;101689.25;5086971;27;46698;-83
2023/03/20 06:26:59;;;;;;;;;12.67;12.67;;;;;9.50;100.00;101680.38;5081485;28;45327;-83
2023/03/20 06:29:25;;;;;;;;;13.33;10.00;;;;;9.59;100.00;101679.31;5095965;28;45584;-80
2023/03/20 06:31:50;;;;;;;;;20.67;19.33;;;;;9.57;100.00;101653.16;5090683;27;44840;-84
2023/03/20 06:34:16;;;;;;;;;19.00;13.00;;;;;9.73;100.00;101677.72;5111407;27;47169;-83
2023/03/20 06:36:42;;;;;;;;;14.00;10.67;;;;;9.80;100.00;101675.94;5100489;27;44843;-83
2023/03/20 06:39:07;;;;;;;;;15.67;14.33;;;;;9.83;100.00;101661.88;5085072;27;45126;-81
2023/03/20 06:41:33;;;;;;;;;11.00;10.00;;;;;9.81;100.00;101649.41;5094575;27;44882;-83
2023/03/20 06:43:59;;;;;;;;;14.00;11.67;;;;;9.94;100.00;101660.63;5092130;27;45321;-82
2023/03/20 06:46:25;;;;;;;;;13.00;11.67;;;;;9.84;100.00;101641.66;5099001;28;44824;-83
2023/03/20 06:48:51;;;;;;;;;10.00;9.00;;;;;9.93;100.00;101658.06;5100478;28;44760;-83
2023/03/20 06:51:16;;;;;;;;;15.00;14.00;;;;;10.01;100.00;101657.97;5099948;27;44836;-82
2023/03/20 06:53:43;;;;;;;;;14.00;13.00;;;;;10.13;100.00;101653.78;5084067;27;45449;-83
2023/03/20 06:56:10;;;;;;;;;15.67;10.00;;;;;10.42;100.00;101679.63;5088019;27;45364;-85
2023/03/20 06:58:36;;;;;;;;;9.67;9.67;;;;;10.63;100.00;101669.81;5075592;27;45296;-83
2023/03/20 07:07:46;;;;;;;;;5.33;4.67;;;;;11.41;100.00;101679.41;5098175;22;45701;-73
2023/03/20 07:10:11;;;;;;;;;10.00;9.33;;;;;11.65;100.00;101664.47;5079726;27;45571;-74
2023/03/20 07:12:37;;;;;;;;;8.00;7.00;;;;;11.98;100.00;101677.78;5084824;27;45958;-74
2023/03/20 07:15:03;;;;;;;;;11.67;11.67;;;;;12.27;100.00;101686.09;5079707;27;46555;-74
2023/03/20 07:17:28;;;;;;;;;13.33;10.67;;;;;12.58;100.00;101684.91;5076654;27;45506;-74
2023/03/20 07:19:54;;;;;;;;;8.33;7.00;;;;;12.83;100.00;101685.28;5093515;27;45356;-72
2023/03/20 07:22:22;;;;;;;;;9.33;9.33;;;;;12.99;100.00;101681.38;5101921;27;46827;-72
2023/03/20 07:24:48;;;;;;;;;13.00;10.33;;;;;13.15;100.00;101678.28;5091221;27;45458;-74
2023/03/20 07:27:13;;;;;;;;;11.33;10.00;;;;;13.29;100.00;101684.72;5089884;27;45538;-72
2023/03/20 07:29:39;;;;;;;;;10.33;9.33;;;;;13.36;100.00;101684.78;5088039;27;45482;-72
2023/03/20 07:32:04;;;;;;;;;8.67;6.33;;;;;13.25;100.00;101658.66;5089126;27;45704;-73
2023/03/20 07:34:30;;;;;;;;;3.33;3.33;;;;;13.49;100.00;101686.75;5098119;27;47673;-72
2023/03/20 07:36:55;;;;;;;;;7.67;4.00;;;;;13.51;100.00;101682.75;5091563;27;45596;-72
2023/03/20 07:39:21;;;;;;;;;4.00;3.00;;;;;13.61;100.00;101685.13;5087719;27;45439;-76
2023/03/20 07:41:46;;;;;;;;;2.67;2.67;;;;;13.77;100.00;101683.88;5080726;27;45925;-75
2023/03/20 07:44:13;;;;;;;;;4.00;4.00;;;;;13.88;100.00;101675.03;5083250;27;45448;-73
2023/03/20 07:46:39;;;;;;;;;3.67;3.67;;;;;14.03;100.00;101679.53;5084320;27;45869;-76
2023/03/20 07:49:05;;;;;;;;;4.00;3.00;;;;;14.18;100.00;101676.59;5088757;27;45982;-75
2023/03/20 07:51:31;;;;;;;;;7.67;3.00;;;;;14.24;100.00;101679.34;5090352;27;45711;-72
2023/03/20 07:53:57;;;;;;;;;6.33;4.00;;;;;14.27;100.00;101678.91;5079438;27;46614;-72
2023/03/20 07:56:23;;;;;;;;;2.33;2.33;;;;;14.35;100.00;101685.28;5081194;27;45383;-72
2023/03/20 07:58:48;;;;;;;;;4.33;3.00;;;;;14.44;100.00;101675.75;5077879;27;45814;-71
2023/03/20 08:01:14;;;;;;;;;3.00;3.00;;;;;14.40;100.00;101667.03;5089065;27;45729;-71
2023/03/20 08:03:39;;;;;;;;;8.67;4.00;;;;;14.48;100.00;101669.59;5092629;27;45647;-71
2023/03/20 08:06:08;;;;;;;;;7.00;3.33;;;;;14.58;100.00;101673.81;5082893;27;45879;-75
2023/03/20 08:08:34;;;;;;;;;4.00;2.67;;;;;14.64;100.00;101673.88;5109274;27;45529;-73
2023/03/20 08:11:00;;;;;;;;;4.67;3.00;;;;;14.62;100.00;101681.50;5087531;27;45720;-72
2023/03/20 08:13:26;;;;;;;;;5.00;5.00;;;;;14.59;100.00;101679.13;5092141;27;45810;-72
2023/03/20 08:15:53;;;;;;;;;6.33;3.67;;;;;14.63;100.00;101691.47;5082570;27;45458;-69
2023/03/20 08:18:21;;;;;;;;;3.67;3.67;;;;;14.68;100.00;101690.00;5081748;27;45640;-70
2023/03/20 08:20:48;;;;;;;;;8.33;6.00;;;;;14.74;100.00;101690.00;5079120;27;45727;-71
2023/03/20 08:23:15;;;;;;;;;4.67;3.33;;;;;14.79;100.00;101700.38;5082485;27;46449;-70
2023/03/20 08:25:40;;;;;;;;;7.67;6.33;;;;;14.81;100.00;101695.53;5089289;27;45812;-71
2023/03/20 08:28:06;;;;;;;;;5.00;4.33;;;;;14.82;100.00;101711.88;5092616;27;46052;-73
2023/03/20 08:30:32;;;;;;;;;7.33;7.00;;;;;14.82;100.00;101711.88;5081557;27;45337;-77
2023/03/20 08:32:58;;;;;;;;;4.67;4.67;;;;;14.81;100.00;101712.09;5091851;27;45678;-76
2023/03/20 08:35:24;;;;;;;;;7.00;4.33;;;;;14.78;100.00;101715.28;5086167;27;45372;-74
2023/03/20 08:37:49;;;;;;;;;3.00;3.00;;;;;14.77;100.00;101705.28;5102417;27;45330;-78
2023/03/20 08:40:15;;;;;;;;;7.00;4.00;;;;;14.85;100.00;101724.41;5099159;27;45725;-76
2023/03/20 08:42:41;;;;;;;;;4.00;3.00;;;;;14.87;100.00;101715.91;5083224;27;45416;-73
2023/03/20 08:45:07;;;;;;;;;4.33;4.33;;;;;14.85;100.00;101718.91;5092645;27;45250;-70
2023/03/20 08:47:32;;;;;;;;;3.33;3.00;;;;;14.87;100.00;101722.28;5080773;27;45736;-71
2023/03/20 08:49:58;;;;;;;;;6.00;5.67;;;;;14.99;100.00;101728.00;5087577;27;45629;-69
2023/03/20 08:52:23;;;;;;;;;1.33;1.00;;;;;15.22;100.00;101724.75;5094465;27;46145;-71
2023/03/20 08:54:50;;;;;;;;;3.33;3.00;;;;;15.42;100.00;101718.34;5104683;27;45407;-69
2023/03/20 08:57:15;;;;;;;;;4.67;3.33;;;;;15.63;100.00;101708.91;5082311;27;45534;-70
2023/03/20 08:59:41;;;;;;;;;3.33;2.00;;;;;15.97;100.00;101715.16;5083459;27;45406;-70
2023/03/20 09:02:09;;;;;;;;;7.00;3.33;;;;;16.15;100.00;101714.41;5090254;27;45932;-70
2023/03/20 09:04:35;;;;;;;;;4.00;3.00;;;;;16.41;100.00;101703.16;5086121;27;45351;-69
2023/03/20 09:07:01;;;;;;;;;5.00;3.33;;;;;16.77;100.00;101709.06;5087105;27;45710;-68
2023/03/20 09:09:28;;;;;;;;;1.67;1.67;;;;;17.10;98.39;101707.94;5085633;27;45961;-76
2023/03/20 09:11:57;;;;;;;;;3.00;3.00;;;;;17.35;97.58;101687.59;5088692;27;45906;-75
2023/03/20 09:14:25;;;;;;;;;4.00;4.00;;;;;17.65;95.99;101674.66;5095006;27;45337;-76
2023/03/20 09:16:51;;;;;;;;;3.00;3.00;;;;;18.04;96.28;101685.47;5094392;27;45309;-74
2023/03/20 09:19:17;;;;;;;;;1.67;1.67;;;;;18.20;94.61;101688.66;5087144;27;45730;-76
2023/03/20 09:21:43;;;;;;;;;5.67;4.33;;;;;18.32;92.65;101675.63;5089731;27;46130;-76
2023/03/20 09:24:10;;;;;;;;;8.00;4.00;;;;;18.44;91.57;101681.22;5089174;27;45827;-74
2023/03/20 09:26:38;;;;;;;;;3.00;3.00;;;;;18.58;89.44;101681.84;5087873;27;45667;-76
2023/03/20 09:29:05;;;;;;;;;4.33;4.33;;;;;18.66;90.32;101675.94;5094990;27;45400;-76
2023/03/20 09:31:31;;;;;;;;;4.00;3.67;;;;;19.17;89.89;101679.94;5092350;27;45539;-74
2023/03/20 09:33:56;;;;;;;;;5.00;3.00;;;;;20.23;86.32;101667.63;5093255;27;45370;-75
2023/03/20 09:36:22;;;;;;;;;4.67;4.00;;;;;21.75;83.24;101670.44;5086115;27;45938;-73
2023/03/20 09:38:47;;;;;;;;;5.33;4.00;;;;;22.95;80.60;101671.25;5089118;27;45897;-77
2023/03/20 09:41:21;;;;;;;;;5.67;3.00;;;;;23.96;74.85;101674.84;5094935;27;46166;-76
2023/03/20 09:43:46;;;;;;;;;2.33;2.33;;;;;24.73;70.91;101677.75;5078166;27;45561;-75
2023/03/20 09:46:30;;;;;;;;;3.00;2.25;;;;;25.19;67.03;101674.84;5089933;27;45571;-76
2023/03/20 09:49:17;;;;;;;;;5.00;3.00;;;;;25.92;63.44;101683.00;5087578;27;45402;-70
2023/03/20 09:51:50;;;;;;;;;4.50;3.75;;;;;26.27;59.43;101681.09;5080769;27;45746;-71
2023/03/20 09:54:37;;;;;;;;;4.00;3.00;;;;;26.65;59.08;101675.69;5087416;27;45446;-72
2023/03/20 09:57:04;;;;;;;;;5.00;3.00;;;;;26.67;54.71;101673.47;5072694;27;45615;-71
2023/03/20 09:59:35;;;;;;;;;3.00;3.00;;;;;26.86;55.35;101676.41;5089793;27;46614;-70
2023/03/20 10:02:11;;;;;;;;;2.00;2.00;;;;;26.91;52.79;101681.97;5085462;27;46516;-65
2023/03/20 10:04:38;;;;;;;;;2.00;2.00;;;;;27.01;51.01;101669.78;5090941;27;45785;-71
2023/03/20 10:07:04;;;;;;;;;4.00;2.75;;;;;26.93;51.58;101665.59;5079124;27;45808;-71
2023/03/20 10:09:31;;;;;;;;;1.50;1.50;;;;;26.67;50.03;101673.47;5087103;27;45432;-73
2023/03/20 10:12:19;;;;;;;;;2.75;2.75;;;;;26.35;50.14;101663.59;5085365;27;48274;-71
2023/03/20 10:15:02;;;;;;;;;2.00;2.00;;;;;26.13;48.89;101659.25;5088985;27;46153;-70
2023/03/20 10:17:27;;;;;;;;;4.25;3.00;;;;;25.97;48.91;101664.09;5086291;27;45434;-71
2023/03/20 10:20:08;;;;;;;;;2.25;2.25;;;;;26.02;48.74;101657.66;5093559;27;45854;-71
2023/03/20 10:22:37;;;;;;;;;3.50;2.00;;;;;26.29;48.13;101625.38;5090150;27;46161;-70
2023/03/20 10:25:06;;;;;;;;;3.25;2.00;;;;;27.03;48.07;101645.78;5080886;27;45540;-70
2023/03/20 10:27:50;;;;;;;;;0.50;0.50;;;;;27.59;45.24;101641.50;5078812;27;45826;-72
2023/03/20 10:30:25;;;;;;;;;2.75;2.00;;;;;28.41;45.20;101635.75;5096910;27;45933;-71
2023/03/20 10:33:09;;;;;;;;;3.25;3.25;;;;;29.12;44.07;101638.38;5086586;27;45529;-71
2023/03/20 10:36:02;;;;;;;;;3.25;3.00;;;;;29.40;42.66;101634.47;5076993;27;45523;-71
2023/03/20 10:38:40;;;;;;;;;5.50;1.75;;;;;29.45;42.08;101629.81;5074334;27;45736;-71
2023/03/20 10:41:14;;;;;;;;;5.25;3.00;;;;;29.65;41.48;101637.03;5099032;27;46107;-71
2023/03/20 10:43:42;;;;;;;;;4.00;2.00;;;;;29.30;39.92;101643.16;5078774;27;45682;-75
2023/03/20 10:46:17;;;;;;;;;2.00;2.00;;;;;29.12;40.25;101633.59;5087244;27;45419;-74
2023/03/20 10:48:57;;;;;;;;;3.50;2.00;;;;;28.70;40.56;101622.25;5077797;27;45584;-74
2023/03/20 10:51:37;;;;;;;;;2.75;2.75;;;;;28.35;41.36;101635.00;5083855;27;45694;-76
2023/03/20 10:54:07;;;;;;;;;4.00;2.75;;;;;27.87;42.13;101633.19;5088461;27;46486;-72
2023/03/20 10:56:41;;;;;;;;;3.50;2.75;;;;;27.58;41.08;101631.34;5086023;27;45230;-75
2023/03/20 10:59:16;;;;;;;;;5.00;2.00;;;;;27.09;42.85;101630.50;5092539;27;45457;-74
2023/03/20 11:01:41;;;;;;;;;2.50;2.50;;;;;26.84;43.33;101628.00;5084339;27;45469;-75
2023/03/20 11:04:07;;;;;;;;;5.00;2.25;;;;;26.54;43.31;101622.38;5088182;27;46518;-72
2023/03/20 11:06:45;;;;;;;;;2.00;1.25;;;;;26.45;43.44;101610.03;5089145;27;45682;-76
2023/03/20 11:09:22;;;;;;;;;4.00;3.00;;;;;26.30;43.22;101608.22;5088798;27;45476;-72
2023/03/20 11:11:51;;;;;;;;;2.00;2.00;;;;;26.29;43.85;101605.69;5086684;27;45492;-76
2023/03/20 11:14:21;;;;;;;;;3.00;1.75;;;;;25.96;44.64;101603.41;5098296;27;45525;-76
2023/03/20 11:16:49;;;;;;;;;5.25;2.00;;;;;25.54;44.55;101614.06;5084580;27;44838;-77
2023/03/20 11:19:16;;;;;;;;;6.75;4.00;;;;;25.17;45.30;101609.72;5075477;27;45679;-75
2023/03/20 11:21:48;;;;;;;;;3.00;3.00;;;;;24.78;45.02;101599.16;5079209;27;45466;-75
2023/03/20 11:24:39;;;;;;;;;2.00;2.00;;;;;24.46;45.68;101608.75;5087441;27;45511;-76
2023/03/20 11:27:16;;;;;;;;;3.50;2.50;;;;;24.19;46.35;101605.38;5107757;27;45746;-77
2023/03/20 11:29:45;;;;;;;;;5.75;3.25;;;;;23.97;47.89;101601.72;5103363;27;45400;-76
2023/03/20 11:32:14;;;;;;;;;7.25;5.50;;;;;23.68;47.38;101601.34;5074977;27;45370;-77
2023/03/20 11:34:42;;;;;;;;;3.50;2.00;;;;;23.38;47.57;101591.78;5080898;27;47466;-75